Time;durP1;ratioP1;P1;durP2;ratioP2;P2;SDS_P1;SDS_P2;PMS_P1;PMS_P2;Temp;Humidity;BMP_temperature;BMP_pressure;BME280_temperature;BME280_humidity;BME280_pressure;Samples;Min_cycle;Max_cycle;Signal;HPM_P1;HPM_P2
2024/04/19 00:00:50;;;;;;;;;7.33;6.67;;;;;11.88;51.07;102026.38;2162257;26;2748134;-74
2024/04/19 00:02:04;;;;;;;;;7.17;4.83;;;;;11.88;51.44;102030.75;2199347;26;2746114;-74
2024/04/19 00:03:18;;;;;;;;;5.17;5.17;;;;;11.87;51.00;102032.53;2205492;26;2744989;-75
2024/04/19 00:04:32;;;;;;;;;5.83;5.83;;;;;11.84;51.03;102019.41;2182916;26;2734593;-75
2024/04/19 00:05:46;;;;;;;;;10.33;9.33;;;;;11.85;51.38;102025.56;2181417;26;2735648;-74
2024/04/19 00:07:00;;;;;;;;;7.17;7.17;;;;;11.83;51.08;102020.31;2183761;26;2737753;-74
2024/04/19 00:08:11;;;;;;;;;6.00;6.00;;;;;11.82;50.98;102024.72;2156011;25;2737705;-74
2024/04/19 00:09:24;;;;;;;;;7.00;6.83;;;;;11.79;51.17;102023.91;2221399;25;2739811;-75
2024/04/19 00:10:38;;;;;;;;;6.00;4.50;;;;;11.82;51.74;102023.84;2207077;26;2740849;-75
2024/04/19 00:11:52;;;;;;;;;7.67;7.67;;;;;11.84;51.39;102018.53;2181861;26;2731487;-74
2024/04/19 00:13:06;;;;;;;;;7.17;7.17;;;;;11.85;51.91;102017.66;2196778;26;2740898;-74
2024/04/19 00:14:17;;;;;;;;;10.67;8.67;;;;;11.84;51.56;102022.06;2155115;25;3471111;-74
2024/04/19 00:15:28;;;;;;;;;9.33;7.00;;;;;11.83;51.53;102020.31;2173521;26;2758643;-74
2024/04/19 00:16:39;;;;;;;;;9.00;9.00;;;;;11.85;51.66;102015.91;2168201;26;1829431;-75
2024/04/19 00:17:53;;;;;;;;;8.00;7.00;;;;;11.85;51.71;102013.28;2168009;26;2739787;-74
2024/04/19 00:19:05;;;;;;;;;7.00;7.00;;;;;11.86;51.79;102012.34;2165247;26;2730449;-74
2024/04/19 00:20:15;;;;;;;;;7.00;7.00;;;;;11.84;52.08;102013.28;2166399;26;2739824;-75
2024/04/19 00:21:26;;;;;;;;;10.00;8.00;;;;;11.87;51.99;102014.09;2178781;26;3480380;-75
2024/04/19 00:22:40;;;;;;;;;8.00;7.83;;;;;11.88;52.62;102020.22;2193374;26;2748124;-75
2024/04/19 00:23:54;;;;;;;;;8.17;7.00;;;;;11.90;52.21;102021.09;2192936;26;2738823;-75
2024/04/19 00:25:08;;;;;;;;;9.17;7.00;;;;;11.91;51.99;102021.03;2166494;26;2740822;-74
2024/04/19 00:26:21;;;;;;;;;10.67;9.00;;;;;11.90;52.41;102015.81;2140135;26;3476248;-74
2024/04/19 00:27:35;;;;;;;;;7.83;6.67;;;;;11.86;52.20;102019.38;2194510;26;2741888;-74
2024/04/19 00:28:49;;;;;;;;;8.33;7.33;;;;;11.81;52.34;102012.44;2169035;26;2734607;-74
2024/04/19 00:30:03;;;;;;;;;6.50;6.50;;;;;11.83;52.25;102015.03;2180040;25;2741884;-74
2024/04/19 00:31:13;;;;;;;;;10.00;8.67;;;;;11.84;51.93;102019.41;2154875;25;2749265;-75
2024/04/19 00:32:25;;;;;;;;;8.00;8.00;;;;;11.83;52.66;102017.66;2178928;26;2746145;-74
2024/04/19 00:33:38;;;;;;;;;7.00;6.17;;;;;11.82;52.26;102016.81;2192205;26;2739800;-74
2024/04/19 00:34:52;;;;;;;;;8.00;7.67;;;;;11.81;52.67;102019.47;2172278;26;2741855;-74
2024/04/19 00:36:03;;;;;;;;;8.00;8.00;;;;;11.81;52.60;102022.97;2153554;26;3449212;-74
2024/04/19 00:37:17;;;;;;;;;6.67;4.67;;;;;11.77;52.71;102015.16;2205998;26;2750220;-74
2024/04/19 00:38:31;;;;;;;;;8.67;6.33;;;;;11.78;53.03;102016.88;2178976;26;2748201;-74
2024/04/19 00:39:42;;;;;;;;;13.00;10.00;;;;;11.75;52.90;102002.03;2140090;26;3520432;-74
2024/04/19 00:40:56;;;;;;;;;6.00;6.00;;;;;11.73;53.03;102008.22;2206807;26;2741925;-74
2024/04/19 00:42:06;;;;;;;;;9.67;9.67;;;;;11.73;52.92;102011.69;2153778;25;2761681;-74
2024/04/19 00:43:17;;;;;;;;;10.00;10.00;;;;;11.72;53.12;102009.97;2179883;25;2773221;-74
2024/04/19 00:44:32;;;;;;;;;8.67;7.67;;;;;11.74;52.89;102015.19;2181370;26;2746030;-74
2024/04/19 00:45:46;;;;;;;;;5.17;5.00;;;;;11.73;53.30;102010.84;2209457;25;2745100;-74
2024/04/19 00:47:00;;;;;;;;;7.17;6.00;;;;;11.74;53.22;102007.28;2181414;25;2748144;-74
2024/04/19 00:48:21;;;;;;;;;7.00;7.00;;;;;11.73;53.25;102006.41;2184131;26;2738758;-75
2024/04/19 00:49:32;;;;;;;;;8.33;6.33;;;;;11.71;53.60;102002.94;2153959;25;2746127;-74
2024/04/19 00:50:51;;;;;;;;;7.00;5.00;;;;;11.72;53.40;102003.81;2207033;25;2750252;-75
2024/04/19 00:52:06;;;;;;;;;6.67;6.67;;;;;11.69;53.94;102000.34;2182483;25;2734567;-74
2024/04/19 00:53:26;;;;;;;;;5.67;5.67;;;;;11.73;53.93;102006.41;2202228;26;2734944;-74
2024/04/19 00:54:38;;;;;;;;;5.33;5.00;;;;;11.70;53.66;101995.97;2145659;25;2748131;-74
2024/04/19 00:55:50;;;;;;;;;10.67;8.33;;;;;11.70;53.83;101994.19;2177950;26;2756495;-74
2024/04/19 00:57:04;;;;;;;;;6.67;6.67;;;;;11.73;54.27;101982.72;2206939;26;2744205;-75
2024/04/19 00:58:18;;;;;;;;;6.33;6.17;;;;;11.73;54.01;101988.00;2182195;25;2740895;-74
2024/04/19 00:59:32;;;;;;;;;6.33;5.33;;;;;11.74;53.64;101984.47;2181974;25;2748113;-74
2024/04/19 01:00:46;;;;;;;;;5.83;5.83;;;;;11.72;53.57;101977.50;2182103;26;2745029;-74
2024/04/19 01:01:57;;;;;;;;;6.00;6.00;;;;;11.72;53.87;101978.38;2154888;25;2750216;-74
2024/04/19 01:03:10;;;;;;;;;9.67;8.67;;;;;11.72;54.48;101981.00;2176221;26;2761985;-74
2024/04/19 01:04:24;;;;;;;;;6.17;6.17;;;;;11.68;53.71;101969.63;2194125;26;2738754;-74
2024/04/19 01:05:38;;;;;;;;;7.33;6.50;;;;;11.69;53.84;101974.03;2169278;26;2726270;-74
2024/04/19 01:06:52;;;;;;;;;8.33;7.83;;;;;11.71;54.31;101973.97;2182514;25;2737705;-74
2024/04/19 01:08:06;;;;;;;;;6.17;6.17;;;;;11.69;53.67;101962.59;2168342;26;2745084;-74
2024/04/19 01:09:20;;;;;;;;;5.67;5.67;;;;;11.64;53.59;101969.72;2179844;26;2746034;-74
2024/04/19 01:10:35;;;;;;;;;7.83;5.50;;;;;11.64;53.94;101970.59;2178175;26;2756453;-74
2024/04/19 01:11:49;;;;;;;;;5.83;4.67;;;;;11.64;53.91;101962.69;2185050;26;2746072;-74
2024/04/19 01:13:03;;;;;;;;;6.17;5.67;;;;;11.62;54.36;101969.75;2184048;25;2745012;-74
2024/04/19 01:14:17;;;;;;;;;5.83;5.00;;;;;11.61;54.07;101962.75;2180995;26;2746078;-74
2024/04/19 01:15:31;;;;;;;;;9.00;6.67;;;;;11.58;53.98;101955.75;2168048;26;2737717;-74
2024/04/19 01:16:42;;;;;;;;;5.67;5.67;;;;;11.62;54.54;101959.22;2152827;26;2736769;-74
2024/04/19 01:17:56;;;;;;;;;6.00;4.67;;;;;11.62;54.19;101963.63;2208070;25;2748132;-74
2024/04/19 01:19:09;;;;;;;;;7.00;6.00;;;;;11.60;54.32;101953.13;2207827;26;2736659;-75
2024/04/19 01:20:23;;;;;;;;;6.17;5.67;;;;;11.61;54.06;101951.34;2170607;26;2742921;-74
2024/04/19 01:21:37;;;;;;;;;7.33;6.67;;;;;11.61;54.76;101952.22;2168559;26;2742964;-75
2024/04/19 01:22:51;;;;;;;;;7.50;6.00;;;;;11.63;54.38;101946.94;2168946;26;2748136;-74
2024/04/19 01:24:21;;;;;;;;;8.17;6.67;;;;;11.67;55.08;101956.50;2181614;26;2746320;-74
2024/04/19 01:25:37;;;;;;;;;9.00;5.00;;;;;11.66;54.24;101947.72;2183558;25;2748184;-74
2024/04/19 01:26:51;;;;;;;;;6.33;6.33;;;;;11.67;54.22;101949.47;2177133;26;2737079;-74
2024/04/19 01:28:09;;;;;;;;;4.17;4.00;;;;;11.68;54.38;101951.19;2208163;26;2750239;-75
2024/04/19 01:29:20;;;;;;;;;4.00;4.00;;;;;11.67;54.50;101938.06;2153617;26;2750185;-75
2024/04/19 01:30:34;;;;;;;;;5.83;5.83;;;;;11.69;54.50;101936.28;2197587;26;2746057;-74
2024/04/19 01:31:48;;;;;;;;;5.83;5.83;;;;;11.68;54.73;101935.41;2193053;26;2748134;-74
2024/04/19 01:32:59;;;;;;;;;5.00;5.00;;;;;11.65;54.17;101924.06;2167160;26;2747246;-74
2024/04/19 01:34:10;;;;;;;;;6.00;6.00;;;;;11.65;54.48;101930.22;2180899;26;2750193;-74
2024/04/19 01:35:23;;;;;;;;;6.50;5.50;;;;;11.66;54.83;101920.53;2207143;26;2750204;-75
2024/04/19 01:36:37;;;;;;;;;6.83;4.67;;;;;11.65;54.70;101919.69;2206509;26;2742939;-74
2024/04/19 01:37:51;;;;;;;;;4.50;4.50;;;;;11.64;54.34;101923.19;2179190;25;2750243;-74
2024/04/19 01:39:02;;;;;;;;;5.67;4.67;;;;;11.64;54.63;101923.19;2139041;26;2748125;-75
2024/04/19 01:40:16;;;;;;;;;5.17;5.00;;;;;11.62;54.67;101918.84;2194030;26;2741879;-75
2024/04/19 01:41:29;;;;;;;;;3.17;2.83;;;;;11.62;55.11;101909.19;2167118;26;2754396;-75
2024/04/19 01:42:40;;;;;;;;;9.33;6.67;;;;;11.65;54.98;101908.25;2141467;26;2767924;-75
2024/04/19 01:43:54;;;;;;;;;6.33;5.67;;;;;11.65;54.69;101914.41;2204150;26;2752271;-75
2024/04/19 01:45:08;;;;;;;;;6.50;5.33;;;;;11.67;54.87;101906.47;2182596;26;2742975;-75
2024/04/19 01:46:22;;;;;;;;;4.83;3.83;;;;;11.69;55.44;101915.19;2181062;26;2749156;-74
2024/04/19 01:47:33;;;;;;;;;7.00;6.00;;;;;11.71;54.50;101910.78;2153929;25;2748206;-74
2024/04/19 01:48:46;;;;;;;;;7.00;5.83;;;;;11.69;55.26;101908.19;2207434;26;2748146;-75
2024/04/19 01:50:00;;;;;;;;;5.00;5.00;;;;;11.67;55.03;101907.34;2194198;26;2742936;-75
2024/04/19 01:51:14;;;;;;;;;2.67;2.67;;;;;11.68;54.79;101919.59;2166790;26;2751247;-75
2024/04/19 01:52:28;;;;;;;;;5.00;5.00;;;;;11.65;54.57;101914.41;2174411;26;2750774;-74
2024/04/19 01:53:41;;;;;;;;;6.33;5.50;;;;;11.60;54.83;101913.63;2182251;26;2744069;-74
2024/04/19 01:54:55;;;;;;;;;6.17;4.50;;;;;11.59;54.92;101914.50;2169561;26;2748139;-74
2024/04/19 01:56:09;;;;;;;;;1.50;1.50;;;;;11.59;55.36;101907.47;2167374;26;2743978;-75
2024/04/19 01:57:20;;;;;;;;;8.00;5.67;;;;;11.63;55.13;101910.06;2139660;26;3469983;-75
2024/04/19 01:58:33;;;;;;;;;2.83;2.00;;;;;11.64;54.83;101911.78;2204579;26;2735628;-75
2024/04/19 01:59:48;;;;;;;;;4.83;4.67;;;;;11.65;55.26;101906.50;2200832;26;2746145;-75
2024/04/19 02:01:01;;;;;;;;;5.00;5.00;;;;;11.66;55.39;101905.59;2168684;26;2740854;-75
2024/04/19 02:02:15;;;;;;;;;4.83;4.83;;;;;11.69;55.08;101909.94;2181229;26;2741877;-75
2024/04/19 02:03:29;;;;;;;;;7.00;5.50;;;;;11.70;55.51;101907.25;2180518;25;2745067;-74
2024/04/19 02:04:40;;;;;;;;;10.00;7.00;;;;;11.70;55.38;101903.78;2152556;26;3480441;-74
2024/04/19 02:06:04;;;;;;;;;2.83;2.83;;;;;11.74;55.50;101901.94;2198781;26;2754352;-75
2024/04/19 02:07:17;;;;;;;;;3.83;3.33;;;;;11.74;54.89;101909.84;2179628;26;2749746;-74
2024/04/19 02:08:31;;;;;;;;;7.17;5.83;;;;;11.73;54.40;101910.75;2180426;26;2749652;-75
2024/04/19 02:09:42;;;;;;;;;6.00;6.00;;;;;11.72;55.11;101903.75;2153515;25;2749194;-74
2024/04/19 02:11:00;;;;;;;;;5.83;5.00;;;;;11.74;55.37;101902.81;2207333;26;2752271;-74
2024/04/19 02:12:14;;;;;;;;;4.83;4.67;;;;;11.77;55.63;101901.91;2205953;26;2746082;-75
2024/04/19 02:13:25;;;;;;;;;2.00;2.00;;;;;11.77;55.84;101891.34;2153464;26;2752303;-75
2024/04/19 02:14:39;;;;;;;;;3.00;3.00;;;;;11.80;55.54;101896.56;2207069;26;2754456;-75
2024/04/19 02:15:52;;;;;;;;;4.83;4.67;;;;;11.78;55.21;101878.16;2206490;26;2746125;-74
2024/04/19 02:17:06;;;;;;;;;4.17;3.67;;;;;11.82;55.23;101878.97;2181456;25;2754386;-75
2024/04/19 02:18:20;;;;;;;;;2.50;1.33;;;;;11.83;55.56;101878.06;2181103;26;2741883;-75
2024/04/19 02:19:39;;;;;;;;;6.33;5.33;;;;;11.81;55.88;101872.81;2168854;26;2750209;-75
2024/04/19 02:20:53;;;;;;;;;4.17;4.17;;;;;11.83;55.34;101875.41;2183583;26;2739777;-74
2024/04/19 02:22:04;;;;;;;;;4.00;4.00;;;;;11.81;55.88;101874.59;2147425;26;2754383;-74
2024/04/19 02:23:36;;;;;;;;;4.33;4.33;;;;;11.86;55.67;101882.38;2180761;26;2744043;-75
2024/04/19 02:24:50;;;;;;;;;5.00;4.17;;;;;11.82;55.78;101871.94;2183596;26;2734951;-75
2024/04/19 02:26:05;;;;;;;;;4.17;3.50;;;;;11.85;55.59;101867.50;2183339;25;2747069;-74
2024/04/19 02:31:57;;;;;;;;;6.67;4.83;;;;;11.81;54.92;101850.88;2183338;26;2750216;-75
2024/04/19 02:33:08;;;;;;;;;3.00;3.00;;;;;11.82;55.40;101857.91;2153142;26;2750240;-75
2024/04/19 02:34:21;;;;;;;;;4.67;4.17;;;;;11.79;55.47;101858.81;2207210;26;2752308;-75
2024/04/19 02:35:35;;;;;;;;;5.17;3.00;;;;;11.79;55.55;101855.31;2206888;25;2731519;-74
2024/04/19 02:36:49;;;;;;;;;4.50;3.17;;;;;11.78;55.34;101849.16;2181725;26;2739836;-75
2024/04/19 02:38:03;;;;;;;;;5.17;4.83;;;;;11.78;55.40;101848.28;2191920;26;2749207;-75
2024/04/19 02:39:16;;;;;;;;;7.17;4.50;;;;;11.78;55.81;101846.53;2169132;26;2752289;-74
2024/04/19 02:40:30;;;;;;;;;4.67;4.67;;;;;11.77;55.08;101843.94;2179459;26;2748157;-74
2024/04/19 02:41:44;;;;;;;;;4.17;4.17;;;;;11.77;55.67;101852.72;2181768;25;2741872;-74
2024/04/19 02:42:58;;;;;;;;;5.50;3.67;;;;;11.74;55.07;101833.47;2182556;25;2750208;-74
2024/04/19 02:44:11;;;;;;;;;4.17;4.17;;;;;11.77;55.40;101836.03;2174629;26;2743963;-74
2024/04/19 02:45:25;;;;;;;;;3.83;3.83;;;;;11.77;55.97;101828.13;2166398;26;2740832;-74
2024/04/19 02:46:40;;;;;;;;;5.00;4.17;;;;;11.78;55.16;101832.50;2166531;26;2747115;-75
2024/04/19 02:47:54;;;;;;;;;4.83;3.67;;;;;11.78;55.71;101832.50;2166306;26;2752294;-74
2024/04/19 02:49:07;;;;;;;;;3.17;3.17;;;;;11.79;55.64;101821.06;2180045;26;2754386;-75
2024/04/19 02:50:18;;;;;;;;;5.67;5.00;;;;;11.78;55.51;101824.59;2152614;25;3461674;-75
2024/04/19 02:51:32;;;;;;;;;4.17;4.17;;;;;11.77;55.48;101831.66;2207498;25;2752319;-75
2024/04/19 02:52:46;;;;;;;;;4.50;3.83;;;;;11.75;55.26;101832.56;2206631;25;2754802;-75
2024/04/19 02:53:59;;;;;;;;;4.00;4.00;;;;;11.73;55.85;101826.47;2180973;26;2750228;-75
2024/04/19 02:55:10;;;;;;;;;5.67;5.00;;;;;11.74;55.62;101822.94;2151543;26;2746077;-74
2024/04/19 02:56:24;;;;;;;;;4.00;4.00;;;;;11.71;55.78;101826.50;2194411;26;2734589;-74
2024/04/19 02:57:38;;;;;;;;;3.83;3.00;;;;;11.70;55.80;101822.13;2167322;26;2739193;-75
2024/04/19 02:58:49;;;;;;;;;4.00;4.00;;;;;11.72;55.88;101824.72;2139139;26;2747099;-75
2024/04/19 03:00:00;;;;;;;;;3.00;3.00;;;;;11.73;55.76;101823.84;2165439;26;2754386;-75
2024/04/19 03:01:11;;;;;;;;;5.00;4.33;;;;;11.72;55.84;101827.38;2163871;26;2754439;-74
2024/04/19 03:02:22;;;;;;;;;6.33;3.33;;;;;11.72;55.88;101822.97;2176048;26;2754465;-74
2024/04/19 03:03:36;;;;;;;;;7.67;5.17;;;;;11.70;56.15;101811.59;2201287;26;2746034;-74
2024/04/19 03:04:49;;;;;;;;;5.33;5.17;;;;;11.73;56.22;101815.94;2191538;26;2744008;-75
2024/04/19 03:06:03;;;;;;;;;4.17;4.00;;;;;11.77;55.87;101822.88;2166874;26;2749151;-75
2024/04/19 03:07:17;;;;;;;;;5.33;3.67;;;;;11.74;55.94;101809.75;2167506;26;2735637;-74
2024/04/19 03:08:30;;;;;;;;;3.00;3.00;;;;;11.73;55.93;101813.31;2166703;26;2743979;-74
2024/04/19 03:09:47;;;;;;;;;3.83;2.67;;;;;11.73;55.74;101815.94;2167081;26;2749185;-74
2024/04/19 03:11:07;;;;;;;;;3.50;3.50;;;;;11.72;56.09;101808.94;2177122;26;2745035;-74
2024/04/19 03:12:20;;;;;;;;;5.67;3.67;;;;;11.72;55.93;101809.81;2183344;26;2744452;-74
2024/04/19 03:13:34;;;;;;;;;3.83;3.83;;;;;11.69;55.92;101813.38;2180948;26;2754358;-74
2024/04/19 03:14:48;;;;;;;;;4.17;3.67;;;;;11.69;55.79;101809.84;2180961;26;2752316;-74
2024/04/19 03:16:08;;;;;;;;;5.67;4.00;;;;;11.69;56.31;101805.47;2182567;25;2747102;-74
2024/04/19 03:17:22;;;;;;;;;4.83;4.83;;;;;11.68;55.90;101806.34;2181218;25;2738769;-74
2024/04/19 03:18:33;;;;;;;;;5.33;5.33;;;;;11.68;56.53;101808.13;2150192;25;2744980;-74
2024/04/19 03:19:47;;;;;;;;;5.00;4.17;;;;;11.67;56.03;101802.00;2192563;26;2740894;-75
2024/04/19 03:21:02;;;;;;;;;4.67;2.50;;;;;11.66;56.59;101797.63;2166283;26;2740880;-75
2024/04/19 03:22:18;;;;;;;;;5.17;4.50;;;;;11.66;56.19;101796.75;2167459;26;2746056;-75
2024/04/19 03:23:31;;;;;;;;;4.83;4.83;;;;;11.67;55.95;101802.00;2167966;26;2738185;-75
2024/04/19 03:24:45;;;;;;;;;3.50;3.50;;;;;11.67;56.61;101804.63;2167879;26;2746054;-75
2024/04/19 03:26:00;;;;;;;;;3.67;3.17;;;;;11.69;55.91;101805.47;2167491;26;2752602;-75
2024/04/19 03:27:13;;;;;;;;;5.33;5.33;;;;;11.67;56.74;101801.13;2169055;26;2741892;-75
2024/04/19 03:28:24;;;;;;;;;9.67;5.00;;;;;11.70;56.23;101807.19;2138460;26;3482911;-75
2024/04/19 03:29:38;;;;;;;;;3.83;3.83;;;;;11.72;56.03;101803.66;2192668;26;2748156;-75
2024/04/19 03:30:52;;;;;;;;;2.50;2.50;;;;;11.71;56.31;101800.16;2191315;26;2748160;-74
2024/04/19 03:32:03;;;;;;;;;4.67;4.67;;;;;11.70;56.04;101801.06;2140484;26;2754367;-74
2024/04/19 03:33:17;;;;;;;;;6.17;4.33;;;;;11.70;56.31;101798.44;2205809;25;2752554;-75
2024/04/19 03:34:28;;;;;;;;;5.00;5.00;;;;;11.70;56.38;101798.44;2153660;25;2748434;-75
2024/04/19 03:35:42;;;;;;;;;3.67;3.50;;;;;11.73;55.91;101800.16;2207948;25;2743949;-75
2024/04/19 03:36:55;;;;;;;;;3.83;3.83;;;;;11.70;56.85;101801.91;2169873;26;2737711;-75
2024/04/19 03:38:09;;;;;;;;;6.00;6.00;;;;;11.72;56.86;101795.75;2165860;26;2752289;-75
2024/04/19 03:39:24;;;;;;;;;5.17;4.50;;;;;11.73;56.82;101800.97;2169631;26;2748592;-74
2024/04/19 03:40:37;;;;;;;;;5.67;5.33;;;;;11.73;56.40;101798.34;2169322;26;2741856;-74
2024/04/19 03:41:51;;;;;;;;;5.17;4.50;;;;;11.75;56.80;101795.69;2168250;26;2747170;-74
2024/04/19 03:43:02;;;;;;;;;5.67;5.67;;;;;11.77;56.73;101799.16;2142080;26;2754371;-74
2024/04/19 03:45:46;;;;;;;;;7.00;6.00;;;;;11.80;56.72;101793.84;2166816;26;2748132;-74
2024/04/19 03:46:59;;;;;;;;;3.17;3.17;;;;;11.81;56.71;101792.94;2199329;26;2737712;-74
2024/04/19 03:48:13;;;;;;;;;5.83;4.50;;;;;11.81;56.91;101787.66;2182947;25;2746074;-74
2024/04/19 03:49:27;;;;;;;;;5.17;5.00;;;;;11.81;56.66;101785.91;2184053;26;2748126;-74
2024/04/19 03:50:46;;;;;;;;;6.00;4.67;;;;;11.79;56.24;101773.66;2184684;26;2743198;-74
2024/04/19 03:51:59;;;;;;;;;4.50;4.50;;;;;11.79;56.31;101784.19;2184261;26;2754397;-75
2024/04/19 03:53:13;;;;;;;;;5.17;3.00;;;;;11.79;56.38;101776.28;2182187;25;2749206;-74
2024/04/19 03:54:24;;;;;;;;;4.33;3.33;;;;;11.81;56.70;101780.63;2139843;26;2754407;-74
2024/04/19 03:55:38;;;;;;;;;5.33;5.33;;;;;11.82;56.95;101773.59;2192394;26;2752283;-75
2024/04/19 03:56:51;;;;;;;;;3.83;3.83;;;;;11.85;56.64;101772.66;2193436;26;2737756;-75
2024/04/19 03:58:05;;;;;;;;;4.50;4.33;;;;;11.86;56.90;101772.63;2168112;26;2739808;-75
2024/04/19 03:59:19;;;;;;;;;5.67;3.50;;;;;11.89;56.36;101769.06;2168150;26;2747117;-75
2024/04/19 04:00:37;;;;;;;;;4.33;3.67;;;;;11.88;56.66;101762.03;2156217;26;2740870;-75
2024/04/19 04:01:51;;;;;;;;;7.33;4.33;;;;;11.87;56.80;101758.56;2163455;26;2742976;-75
2024/04/19 04:03:02;;;;;;;;;4.00;4.00;;;;;11.87;57.25;101760.31;2153972;26;2754363;-74
2024/04/19 04:04:15;;;;;;;;;5.33;3.50;;;;;11.88;56.24;101757.66;2209865;25;2739785;-74
2024/04/19 04:05:26;;;;;;;;;4.67;4.67;;;;;11.91;56.62;101757.59;2180112;25;2748107;-75
2024/04/19 04:06:37;;;;;;;;;7.33;4.33;;;;;11.89;56.87;101754.13;2181293;25;2743989;-75
2024/04/19 04:07:51;;;;;;;;;6.83;5.17;;;;;11.90;56.01;101761.09;2207708;25;2747112;-75
2024/04/19 04:09:05;;;;;;;;;6.17;3.83;;;;;11.85;55.91;101757.75;2192216;26;2734602;-74
2024/04/19 04:10:18;;;;;;;;;4.17;3.00;;;;;11.87;56.29;101766.47;2179475;26;2754351;-74
2024/04/19 04:11:32;;;;;;;;;6.67;4.67;;;;;11.85;56.16;101759.50;2183202;26;2752339;-74
2024/04/19 04:12:43;;;;;;;;;4.00;4.00;;;;;11.85;55.90;101764.75;2153051;26;2754417;-75
2024/04/19 04:13:57;;;;;;;;;6.50;5.00;;;;;11.85;55.80;101760.38;2208578;26;2746054;-74
2024/04/19 04:15:11;;;;;;;;;2.17;2.17;;;;;11.87;55.49;101749.78;2206767;26;2736651;-74
2024/04/19 04:16:24;;;;;;;;;4.50;4.50;;;;;11.84;55.44;101758.63;2207955;25;2746065;-74
2024/04/19 04:17:38;;;;;;;;;4.67;2.33;;;;;11.84;54.82;101750.72;2183737;25;2754351;-74
2024/04/19 04:18:52;;;;;;;;;4.83;3.50;;;;;11.80;55.15;101749.06;2183076;26;2745032;-74
2024/04/19 04:20:07;;;;;;;;;4.00;4.00;;;;;11.81;54.41;101756.06;2182448;26;2741870;-74
2024/04/19 04:21:21;;;;;;;;;4.00;4.00;;;;;11.82;54.58;101755.16;2181203;26;2735626;-74
2024/04/19 04:22:35;;;;;;;;;4.00;4.00;;;;;11.80;54.53;101747.28;2169615;26;2745013;-75
2024/04/19 04:23:46;;;;;;;;;3.33;3.33;;;;;11.81;55.02;101749.03;2147367;26;2754399;-75
2024/04/19 04:24:57;;;;;;;;;5.00;5.00;;;;;11.79;54.68;101749.94;2165742;26;2749601;-75
2024/04/19 04:26:10;;;;;;;;;5.00;3.67;;;;;11.80;54.03;101751.69;2192821;26;2749191;-75
2024/04/19 04:27:24;;;;;;;;;6.83;4.67;;;;;11.80;53.87;101751.69;2201836;26;2754419;-75
2024/04/19 04:28:38;;;;;;;;;3.83;3.67;;;;;11.71;53.24;101747.47;2163680;26;2741883;-75
2024/04/19 04:29:52;;;;;;;;;4.33;3.00;;;;;11.69;53.45;101751.91;2167077;26;2752296;-75
2024/04/19 04:31:08;;;;;;;;;3.00;2.00;;;;;11.66;52.90;101755.47;2168696;26;2746094;-75
2024/04/19 04:32:22;;;;;;;;;3.50;3.33;;;;;11.64;53.22;101756.41;2184567;25;2748117;-75
2024/04/19 04:33:35;;;;;;;;;3.50;3.00;;;;;11.62;53.65;101745.06;2195187;25;2754437;-74
2024/04/19 04:34:47;;;;;;;;;5.00;3.67;;;;;11.63;53.71;101758.16;2154633;25;2754384;-75
2024/04/19 04:36:00;;;;;;;;;3.00;2.33;;;;;11.62;53.75;101750.31;2208314;26;2740224;-75
2024/04/19 04:37:14;;;;;;;;;2.67;2.67;;;;;11.62;53.24;101756.47;2154241;26;2735638;-74
2024/04/19 04:38:28;;;;;;;;;3.17;2.17;;;;;11.60;53.31;101755.63;2169043;26;2730436;-75
2024/04/19 04:39:42;;;;;;;;;3.17;3.17;;;;;11.60;52.96;101755.63;2167886;26;2752276;-75
2024/04/19 04:40:55;;;;;;;;;3.67;3.50;;;;;11.60;53.12;101753.00;2178332;26;2744018;-74
2024/04/19 04:42:09;;;;;;;;;2.83;2.67;;;;;11.58;53.17;101749.53;2175528;26;2752294;-75
2024/04/19 04:43:23;;;;;;;;;3.67;3.17;;;;;11.55;53.34;101750.47;2169237;26;2738789;-74
2024/04/19 04:44:37;;;;;;;;;4.00;2.83;;;;;11.53;53.50;101749.59;2167243;26;2752306;-74
2024/04/19 04:45:52;;;;;;;;;2.50;2.50;;;;;11.54;53.38;101747.84;2167860;26;2748121;-74
2024/04/19 04:47:03;;;;;;;;;4.00;3.00;;;;;11.58;53.90;101744.25;2153017;26;2754382;-74
2024/04/19 04:48:16;;;;;;;;;7.33;4.00;;;;;11.60;53.13;101747.72;2181365;25;2762732;-74
2024/04/19 04:49:30;;;;;;;;;1.83;1.83;;;;;11.58;53.09;101747.75;2208450;26;2742366;-75
2024/04/19 04:50:44;;;;;;;;;6.00;3.50;;;;;11.57;53.62;101738.13;2168200;26;2746140;-74
2024/04/19 04:51:57;;;;;;;;;3.00;3.00;;;;;11.58;53.61;101741.63;2175392;26;2747068;-74
2024/04/19 04:53:11;;;;;;;;;1.33;1.33;;;;;11.57;53.70;101732.84;2168736;26;2733577;-75
2024/04/19 04:54:25;;;;;;;;;7.00;3.50;;;;;11.63;54.09;101738.91;2167604;26;2748152;-74
2024/04/19 04:55:38;;;;;;;;;3.67;3.67;;;;;11.60;53.79;101737.19;2167328;26;2754396;-74
2024/04/19 04:56:52;;;;;;;;;3.83;3.83;;;;;11.57;53.83;101731.97;2166670;26;2747067;-75
2024/04/19 04:58:04;;;;;;;;;7.00;3.67;;;;;11.58;54.12;101734.56;2141393;26;2754417;-74
2024/04/19 04:59:18;;;;;;;;;3.83;2.50;;;;;11.57;54.17;101730.22;2204221;26;2741868;-74
2024/04/19 05:00:32;;;;;;;;;4.83;2.00;;;;;11.56;54.01;101724.97;2178820;26;2736728;-74
2024/04/19 05:01:46;;;;;;;;;4.00;4.00;;;;;11.54;54.12;101732.91;2182767;26;2734596;-74
2024/04/19 05:03:00;;;;;;;;;3.50;3.50;;;;;11.55;53.84;101734.66;2181240;26;2748133;-74
2024/04/19 05:04:13;;;;;;;;;3.50;2.50;;;;;11.54;54.32;101729.41;2159486;26;2744023;-74
2024/04/19 05:05:27;;;;;;;;;5.50;5.50;;;;;11.52;53.89;101734.72;2179751;26;2741898;-74
2024/04/19 05:06:41;;;;;;;;;5.67;3.83;;;;;11.52;54.50;101733.84;2160046;26;2746039;-74
2024/04/19 05:07:56;;;;;;;;;3.33;3.33;;;;;11.52;53.92;101733.84;2171460;25;2750279;-74
2024/04/19 05:09:10;;;;;;;;;3.67;3.67;;;;;11.45;54.03;101728.72;2191645;25;2744976;-75
2024/04/19 05:10:24;;;;;;;;;4.00;4.00;;;;;11.45;53.98;101728.72;2181254;26;2739887;-74
2024/04/19 05:11:37;;;;;;;;;3.67;3.67;;;;;11.48;54.79;101740.97;2174175;25;2740814;-74
2024/04/19 05:12:48;;;;;;;;;5.00;3.67;;;;;11.47;54.72;101731.31;2141175;26;2754398;-74
2024/04/19 05:14:02;;;;;;;;;3.83;2.33;;;;;11.47;55.03;101733.94;2194679;26;2750192;-74
2024/04/19 05:15:16;;;;;;;;;2.83;2.83;;;;;11.47;54.85;101732.19;2207216;25;2737763;-74
2024/04/19 05:16:30;;;;;;;;;2.50;2.50;;;;;11.45;55.14;101731.34;2184199;26;2739781;-75
2024/04/19 05:17:44;;;;;;;;;5.67;4.00;;;;;11.49;55.19;101737.41;2180986;26;2749885;-75
2024/04/19 05:18:57;;;;;;;;;2.67;2.67;;;;;11.52;55.04;101741.75;2177967;26;2743965;-75
2024/04/19 05:20:11;;;;;;;;;3.83;3.50;;;;;11.51;54.78;101734.75;2193632;26;2754434;-75
2024/04/19 05:21:25;;;;;;;;;4.83;3.50;;;;;11.47;54.84;101739.22;2170355;26;2738770;-74
2024/04/19 05:22:39;;;;;;;;;4.17;3.83;;;;;11.48;54.83;101727.78;2183790;26;2744319;-74
2024/04/19 05:23:50;;;;;;;;;4.00;4.00;;;;;11.47;54.70;101726.91;2153070;26;2754425;-75
2024/04/19 05:25:04;;;;;;;;;4.83;4.83;;;;;11.48;55.15;101723.38;2192872;26;2747229;-74
2024/04/19 05:26:18;;;;;;;;;3.33;2.67;;;;;11.50;55.00;101727.75;2203191;26;2736726;-74
2024/04/19 05:27:32;;;;;;;;;2.50;2.50;;;;;11.50;54.79;101726.00;2206857;25;2752299;-75
2024/04/19 05:28:43;;;;;;;;;5.00;4.00;;;;;11.53;55.37;101735.59;2154182;26;2754449;-75
2024/04/19 05:29:57;;;;;;;;;7.00;4.50;;;;;11.52;54.90;101728.56;2207702;26;2735674;-75
2024/04/19 05:31:10;;;;;;;;;4.00;4.00;;;;;11.50;55.00;101727.75;2194159;26;2749169;-75
2024/04/19 05:32:24;;;;;;;;;5.33;4.00;;;;;11.48;54.92;101728.63;2180097;26;2748161;-75
2024/04/19 05:33:39;;;;;;;;;2.33;1.17;;;;;11.48;55.12;101727.78;2207718;25;2738783;-74
2024/04/19 05:34:53;;;;;;;;;3.83;3.83;;;;;11.44;55.56;101729.59;2194610;26;2744991;-75
2024/04/19 05:36:07;;;;;;;;;3.50;2.50;;;;;11.45;54.48;101723.47;2174099;26;2754375;-75
2024/04/19 05:37:19;;;;;;;;;5.00;3.67;;;;;11.41;54.87;101721.75;2148871;26;2754386;-74
2024/04/19 05:38:33;;;;;;;;;1.50;1.50;;;;;11.45;54.94;101726.09;2205148;26;2735658;-74
2024/04/19 05:39:47;;;;;;;;;4.67;3.67;;;;;11.45;54.98;101728.72;2181018;26;2741883;-75
2024/04/19 05:40:58;;;;;;;;;5.00;5.00;;;;;11.47;55.11;101724.28;2148263;26;2750749;-75